X  Tanca Dades meteorològiques de l'aviació METAR        LGTS Thessaloniki Macedonia International
Temperatura
16°C Temperatura
9°C Rosada
63% Humitat



Vent
4 KM/H
2 MPH
1 M/S
2 NUS



-1°
VRB
Condicions actuals

Mostly Sunny Majoritàriament assolellat
Pressió 1020 (hPa) - 30.12 (inHg)
Visibilitat 6 (milla) - 10 (km)
Aeroport
Codi aeroport LGTS

Ubicació: Thessaloniki Macedonia International
Distància: 85 (km)

Metar:
METAR LGTS 150520Z VRB02KT CAVOK 16/09 Q1020 NOSIG

Temps: 15-04-2024 08:20 EEST